Time;durP1;ratioP1;P1;durP2;ratioP2;P2;SDS_P1;SDS_P2;PMS_P1;PMS_P2;Temp;Humidity;BMP_temperature;BMP_pressure;BME280_temperature;BME280_humidity;BME280_pressure;Samples;Min_cycle;Max_cycle;Signal;HPM_P1;HPM_P2
2024/03/08 00:00:32;;;;;;;27.80;20.00;;;;;;;0.55;96.79;97164.61;109167;1266;23163;-73
2024/03/08 00:03:28;;;;;;;29.30;20.80;;;;;;;0.55;96.84;97156.58;109162;1269;22504;-72
2024/03/08 00:06:04;;;;;;;30.60;20.70;;;;;;;0.55;96.69;97161.88;109081;1270;22607;-73
2024/03/08 00:08:38;;;;;;;30.10;21.10;;;;;;;0.54;96.60;97162.44;109138;1268;22519;-73
2024/03/08 00:11:09;;;;;;;28.00;20.00;;;;;;;0.55;96.64;97162.39;109111;1267;22551;-73
2024/03/08 00:13:45;;;;;;;27.20;18.90;;;;;;;0.53;96.65;97164.33;109117;1272;22490;-72
2024/03/08 00:16:23;;;;;;;25.10;18.40;;;;;;;0.52;96.38;97163.45;109143;1269;25403;-73
2024/03/08 00:18:54;;;;;;;24.60;18.20;;;;;;;0.53;96.61;97158.86;109118;1272;23472;-73
2024/03/08 00:21:26;;;;;;;30.80;19.30;;;;;;;0.53;96.54;97158.63;109097;1270;22562;-73
2024/03/08 00:24:00;;;;;;;28.20;19.90;;;;;;;0.54;96.78;97156.77;109140;1272;23858;-73
2024/03/08 00:26:38;;;;;;;27.80;19.00;;;;;;;0.52;96.65;97154.41;109124;1266;22546;-73
2024/03/08 00:29:13;;;;;;;26.70;19.50;;;;;;;0.53;96.64;97152.68;109043;1272;22576;-73
2024/03/08 00:31:44;;;;;;;28.40;19.10;;;;;;;0.50;96.56;97150.89;109095;1272;22507;-73
2024/03/08 00:34:18;;;;;;;24.90;18.00;;;;;;;0.48;96.60;97147.16;109128;1269;22657;-73
2024/03/08 00:36:52;;;;;;;27.20;17.90;;;;;;;0.47;96.31;97148.80;109089;1269;22509;-73
2024/03/08 00:39:25;;;;;;;28.80;19.00;;;;;;;0.47;96.42;97146.40;109073;1272;22510;-73
2024/03/08 00:41:56;;;;;;;28.20;19.60;;;;;;;0.47;96.63;97149.16;109111;1269;23856;-72
2024/03/08 00:44:27;;;;;;;25.20;18.90;;;;;;;0.47;96.48;97143.58;109097;1271;22962;-73
2024/03/08 00:46:58;;;;;;;26.70;19.90;;;;;;;0.48;96.68;97142.66;109087;1266;22549;-73
2024/03/08 00:49:29;;;;;;;28.50;19.90;;;;;;;0.46;96.37;97138.93;109151;1266;22528;-72
2024/03/08 00:52:07;;;;;;;27.20;17.90;;;;;;;0.44;96.34;97138.27;109111;1266;25942;-72
2024/03/08 00:54:43;;;;;;;25.60;17.00;;;;;;;0.45;96.67;97140.55;109130;1272;22970;-73
2024/03/08 00:57:16;;;;;;;26.70;18.50;;;;;;;0.47;96.66;97139.10;109097;1271;22708;-73
2024/03/08 00:59:47;;;;;;;27.10;19.90;;;;;;;0.47;96.24;97137.34;109136;1272;23769;-73
2024/03/08 01:02:19;;;;;;;28.50;18.80;;;;;;;0.47;96.22;97132.88;109109;1272;22624;-72
2024/03/08 01:04:50;;;;;;;28.80;20.10;;;;;;;0.48;96.51;97132.55;109231;1272;22581;-73
2024/03/08 01:07:21;;;;;;;28.00;19.80;;;;;;;0.47;96.45;97135.60;109082;1272;23008;-72
2024/03/08 01:09:57;;;;;;;24.80;18.70;;;;;;;0.45;96.19;97133.12;109117;1272;22519;-73
2024/03/08 01:12:29;;;;;;;26.00;18.80;;;;;;;0.42;96.13;97131.55;109154;1272;24182;-72
2024/03/08 01:15:03;;;;;;;28.40;19.90;;;;;;;0.42;96.10;97129.98;109132;1272;24137;-72
2024/03/08 01:17:34;;;;;;;24.90;17.60;;;;;;;0.43;96.01;97125.81;109089;1269;22591;-72
2024/03/08 01:20:10;;;;;;;27.00;19.70;;;;;;;0.39;96.12;97124.31;109072;1269;22507;-73
2024/03/08 01:22:42;;;;;;;30.40;20.30;;;;;;;0.38;96.21;97126.41;109105;1272;25943;-73
2024/03/08 01:25:13;;;;;;;26.50;19.20;;;;;;;0.39;96.36;97123.27;109079;1271;22533;-72
2024/03/08 01:27:43;;;;;;;25.90;19.70;;;;;;;0.38;96.09;97123.20;109098;1266;22515;-73
2024/03/08 01:30:15;;;;;;;24.80;17.70;;;;;;;0.39;95.96;97122.31;109126;1269;22569;-73
2024/03/08 01:32:47;;;;;;;27.10;18.40;;;;;;;0.39;96.15;97114.56;109150;1269;22505;-73
2024/03/08 01:35:22;;;;;;;23.90;17.60;;;;;;;0.41;96.13;97115.98;109086;1272;22571;-73
2024/03/08 01:37:53;;;;;;;26.10;19.10;;;;;;;0.42;96.06;97118.41;109116;1267;24248;-72
2024/03/08 01:40:26;;;;;;;26.60;19.10;;;;;;;0.40;96.01;97113.44;109142;1269;22553;-73
2024/03/08 01:42:57;;;;;;;25.50;19.10;;;;;;;0.39;95.97;97111.64;109140;1267;22510;-73
2024/03/08 01:45:34;;;;;;;24.60;19.00;;;;;;;0.40;96.36;97110.63;109065;1272;22630;-72
2024/03/08 01:48:06;;;;;;;27.00;19.20;;;;;;;0.40;96.08;97104.57;109132;1271;24325;-73
2024/03/08 01:50:39;;;;;;;25.60;18.30;;;;;;;0.37;95.81;97105.86;109125;1272;22549;-73
2024/03/08 01:53:17;;;;;;;25.00;18.40;;;;;;;0.35;95.77;97105.95;109179;1272;23043;-72
2024/03/08 01:55:54;;;;;;;25.00;17.60;;;;;;;0.37;95.96;97102.05;109130;1273;22515;-73
2024/03/08 01:58:30;;;;;;;27.30;18.70;;;;;;;0.40;96.35;97101.40;109144;1273;22531;-73
2024/03/08 02:01:04;;;;;;;26.80;18.70;;;;;;;0.43;96.33;97097.48;109081;1266;23864;-73
2024/03/08 02:03:38;;;;;;;28.20;19.40;;;;;;;0.45;96.20;97094.31;109076;1273;22501;-72
2024/03/08 02:06:16;;;;;;;28.80;19.50;;;;;;;0.42;95.97;97095.04;109084;1273;22985;-72
2024/03/08 02:08:48;;;;;;;29.00;20.00;;;;;;;0.36;95.67;97095.87;109100;1273;25086;-73
2024/03/08 02:11:22;;;;;;;24.10;17.80;;;;;;;0.34;95.64;97093.19;109060;1266;22532;-73
2024/03/08 02:13:53;;;;;;;24.50;18.00;;;;;;;0.33;95.51;97090.52;109125;1269;22545;-73
2024/03/08 02:16:24;;;;;;;26.30;17.20;;;;;;;0.32;95.60;97087.70;109103;1271;22514;-73
2024/03/08 02:19:09;;;;;;;24.50;17.00;;;;;;;0.27;95.54;97093.35;109135;1271;22557;-72
2024/03/08 02:21:40;;;;;;;28.40;19.90;;;;;;;0.14;95.27;97093.75;109203;1269;22562;-73
2024/03/08 02:24:14;;;;;;;25.20;17.80;;;;;;;0.02;95.06;97092.83;109187;1272;22519;-72
2024/03/08 02:26:46;;;;;;;25.40;17.80;;;;;;;-0.06;95.47;97093.52;109168;1272;25418;-73
2024/03/08 02:29:23;;;;;;;24.90;17.30;;;;;;;-0.11;95.56;97091.37;109147;1272;22530;-72
2024/03/08 02:31:55;;;;;;;24.40;17.80;;;;;;;-0.10;95.79;97091.30;109148;1266;22515;-73
2024/03/08 02:34:26;;;;;;;24.20;17.20;;;;;;;-0.05;96.02;97090.20;109129;1266;22629;-73
2024/03/08 02:36:59;;;;;;;26.00;17.90;;;;;;;0.01;95.79;97091.19;109063;1272;22520;-73
2024/03/08 02:39:33;;;;;;;26.30;17.30;;;;;;;0.04;95.92;97085.73;109070;1272;22486;-73
2024/03/08 02:42:08;;;;;;;27.10;17.30;;;;;;;0.02;95.92;97085.45;109040;1273;22532;-73
2024/03/08 02:44:39;;;;;;;22.00;16.30;;;;;;;-0.07;95.16;97086.52;109145;1271;22557;-73
2024/03/08 02:47:10;;;;;;;21.90;16.00;;;;;;;-0.12;95.29;97086.36;109146;1272;24199;-73
2024/03/08 02:49:41;;;;;;;22.80;17.20;;;;;;;-0.12;95.30;97088.96;109166;1272;22520;-73
2024/03/08 02:52:12;;;;;;;25.90;18.10;;;;;;;-0.09;95.57;97090.09;109137;1272;22473;-73
2024/03/08 02:54:43;;;;;;;24.60;16.90;;;;;;;-0.05;95.61;97089.41;109070;1272;22518;-72
2024/03/08 02:57:16;;;;;;;23.70;18.00;;;;;;;-0.10;95.35;97087.77;109119;1272;22869;-73
2024/03/08 02:59:48;;;;;;;24.70;16.70;;;;;;;-0.13;95.25;97089.81;109136;1272;23274;-73
2024/03/08 03:02:19;;;;;;;27.90;19.00;;;;;;;-0.15;95.13;97091.39;109107;1272;22514;-73
2024/03/08 03:04:50;;;;;;;25.50;16.90;;;;;;;-0.13;95.35;97089.73;109086;1272;25258;-73
2024/03/08 03:07:21;;;;;;;24.70;17.60;;;;;;;-0.20;95.12;97087.98;109129;1267;23338;-73
2024/03/08 03:09:52;;;;;;;24.60;16.50;;;;;;;-0.33;94.98;97084.23;109119;1255;22646;-73
2024/03/08 03:12:23;;;;;;;25.20;16.30;;;;;;;-0.41;94.76;97089.11;109123;1268;22506;-73
2024/03/08 03:14:56;;;;;;;25.20;17.30;;;;;;;-0.47;94.78;97090.84;109075;1269;22515;-72
2024/03/08 03:17:32;;;;;;;24.40;17.20;;;;;;;-0.50;94.75;97091.00;109085;1272;25441;-73
2024/03/08 03:20:12;;;;;;;24.80;16.70;;;;;;;-0.52;94.57;97093.44;109015;1274;24014;-73
2024/03/08 03:22:47;;;;;;;25.40;17.70;;;;;;;-0.55;94.50;97090.95;109076;1272;22493;-73
2024/03/08 03:25:29;;;;;;;25.40;17.00;;;;;;;-0.62;94.54;97091.60;109069;1273;22511;-73
2024/03/08 03:27:59;;;;;;;24.20;15.90;;;;;;;-0.66;94.44;97091.00;109006;1273;22474;-72
2024/03/08 03:30:32;;;;;;;25.60;17.70;;;;;;;-0.65;94.39;97091.45;109040;1272;22651;-73
2024/03/08 03:33:06;;;;;;;26.00;16.70;;;;;;;-0.67;94.51;97089.76;109097;1273;22540;-73
2024/03/08 03:35:39;;;;;;;24.00;17.10;;;;;;;-0.68;94.51;97088.27;109043;1269;23673;-73
2024/03/08 03:38:13;;;;;;;22.70;15.30;;;;;;;-0.68;94.32;97088.99;109016;1273;23794;-73
2024/03/08 03:40:48;;;;;;;25.90;16.90;;;;;;;-0.69;94.32;97090.39;109043;1272;22480;-73
2024/03/08 03:43:19;;;;;;;24.60;17.20;;;;;;;-0.73;94.22;97091.52;109071;1266;23338;-73
2024/03/08 03:45:55;;;;;;;22.60;15.00;;;;;;;-0.75;94.33;97089.47;109129;1266;23149;-72
2024/03/08 03:48:26;;;;;;;24.60;16.40;;;;;;;-0.78;94.43;97086.98;109117;1269;22537;-73
2024/03/08 03:50:59;;;;;;;24.30;16.00;;;;;;;-0.79;94.32;97088.59;109155;1272;22524;-73
2024/03/08 03:53:38;;;;;;;22.70;15.80;;;;;;;-0.84;93.94;97090.29;109074;1272;24420;-73
2024/03/08 03:56:10;;;;;;;24.70;15.90;;;;;;;-0.85;94.22;97088.45;109027;1274;24202;-72
2024/03/08 03:58:43;;;;;;;24.10;15.70;;;;;;;-0.84;94.18;97083.80;109095;1273;24100;-72
2024/03/08 04:01:14;;;;;;;23.90;17.00;;;;;;;-0.82;94.28;97086.54;109070;1272;22513;-72
2024/03/08 04:03:48;;;;;;;20.30;14.40;;;;;;;-0.84;94.02;97082.41;109050;1272;25281;-73
2024/03/08 04:06:22;;;;;;;19.70;13.60;;;;;;;-0.80;94.20;97080.29;109134;1272;25021;-73
2024/03/08 04:08:53;;;;;;;23.50;15.90;;;;;;;-0.75;94.15;97076.73;109106;1272;22530;-73
2024/03/08 04:11:30;;;;;;;25.00;17.80;;;;;;;-0.71;94.13;97073.91;109051;1269;22565;-72
2024/03/08 04:14:05;;;;;;;25.60;17.10;;;;;;;-0.66;94.42;97073.38;109048;1272;22521;-73
2024/03/08 04:16:36;;;;;;;22.20;16.10;;;;;;;-0.63;94.25;97075.91;109053;1267;25230;-73
2024/03/08 04:19:12;;;;;;;22.30;14.40;;;;;;;-0.61;94.36;97075.26;109109;1272;22490;-73
2024/03/08 04:21:43;;;;;;;21.60;14.60;;;;;;;-0.58;94.43;97074.11;109008;1272;22524;-72
2024/03/08 04:24:13;;;;;;;24.00;15.70;;;;;;;-0.55;94.33;97073.70;109050;1272;22507;-73
2024/03/08 04:26:44;;;;;;;25.60;17.60;;;;;;;-0.51;94.22;97077.55;109035;1266;22541;-72
2024/03/08 04:29:17;;;;;;;26.50;17.40;;;;;;;-0.50;94.21;97070.41;109010;1273;22511;-73
2024/03/08 04:31:48;;;;;;;25.60;17.80;;;;;;;-0.46;94.61;97074.06;109031;1273;22521;-73
2024/03/08 04:34:19;;;;;;;24.50;16.70;;;;;;;-0.44;94.35;97075.82;109062;1272;24203;-73
2024/03/08 04:36:52;;;;;;;21.70;15.80;;;;;;;-0.44;94.50;97077.62;109027;1273;22514;-73
2024/03/08 04:39:23;;;;;;;20.10;14.50;;;;;;;-0.46;94.17;97083.08;109056;1273;23862;-73
2024/03/08 04:41:59;;;;;;;20.80;15.10;;;;;;;-0.53;93.73;97087.11;109044;1272;22513;-73
2024/03/08 04:44:34;;;;;;;23.10;15.40;;;;;;;-0.55;93.69;97089.32;109070;1272;22511;-72
2024/03/08 04:47:06;;;;;;;24.60;16.70;;;;;;;-0.59;93.59;97089.16;109095;1272;22697;-72
2024/03/08 04:49:39;;;;;;;25.20;17.60;;;;;;;-0.61;93.97;97087.92;109138;1273;22515;-73
2024/03/08 04:52:12;;;;;;;24.50;17.60;;;;;;;-0.58;94.14;97093.16;108974;1272;150620;-73
2024/03/08 04:54:42;;;;;;;25.80;19.30;;;;;;;-0.62;93.87;97095.66;109033;1272;25432;-73
2024/03/08 04:57:13;;;;;;;24.30;17.60;;;;;;;-0.64;93.87;97092.40;109079;1267;22475;-73
2024/03/08 04:59:44;;;;;;;23.70;16.50;;;;;;;-0.66;93.54;97090.91;109069;1272;22541;-72
2024/03/08 05:02:18;;;;;;;21.10;14.80;;;;;;;-0.64;93.81;97091.52;108991;1266;22522;-73
2024/03/08 05:04:52;;;;;;;25.00;16.50;;;;;;;-0.66;93.73;97095.48;109051;1272;25067;-73
2024/03/08 05:07:23;;;;;;;26.10;18.70;;;;;;;-0.69;93.52;97097.80;109184;1272;22689;-73
2024/03/08 05:09:57;;;;;;;20.90;15.20;;;;;;;-0.73;93.71;97098.16;109195;1272;23001;-73
2024/03/08 05:12:32;;;;;;;22.50;14.90;;;;;;;-0.70;93.74;97099.08;109110;1266;22513;-73
2024/03/08 05:15:05;;;;;;;19.30;14.30;;;;;;;-0.65;93.81;97100.81;109035;1272;22816;-73
2024/03/08 05:17:40;;;;;;;19.90;12.90;;;;;;;-0.60;93.95;97098.21;109014;1272;22515;-73
2024/03/08 05:20:22;;;;;;;25.40;16.50;;;;;;;-0.59;93.73;97098.34;109014;1272;23149;-73
2024/03/08 05:22:53;;;;;;;25.90;17.60;;;;;;;-0.60;93.94;97096.70;109009;1272;24012;-73
2024/03/08 05:25:24;;;;;;;22.70;16.70;;;;;;;-0.61;93.55;97098.54;109079;1272;22521;-73
2024/03/08 05:27:58;;;;;;;23.70;15.80;;;;;;;-0.69;93.42;97098.03;109092;1272;25453;-73
2024/03/08 05:30:31;;;;;;;24.10;15.60;;;;;;;-0.73;93.35;97097.09;109040;1272;22665;-73
2024/03/08 05:33:06;;;;;;;25.70;17.50;;;;;;;-0.77;93.52;97096.95;109088;1272;22520;-73
2024/03/08 05:35:38;;;;;;;25.50;15.60;;;;;;;-0.83;93.34;97101.02;109062;1273;22543;-73
2024/03/08 05:38:12;;;;;;;26.40;16.20;;;;;;;-0.87;93.22;97100.35;109029;1269;23474;-74
2024/03/08 05:40:43;;;;;;;23.10;14.80;;;;;;;-0.93;93.23;97107.02;109032;1272;25454;-73
2024/03/08 05:43:17;;;;;;;27.40;15.70;;;;;;;-0.98;93.18;97103.11;109050;1272;22516;-73
2024/03/08 05:45:50;;;;;;;28.00;17.90;;;;;;;-1.00;93.37;97105.29;109134;1270;25258;-73
2024/03/08 05:48:25;;;;;;;24.30;16.00;;;;;;;-0.99;93.32;97105.70;109148;1272;22557;-72
2024/03/08 05:50:58;;;;;;;26.10;15.60;;;;;;;-0.98;93.32;97102.95;109131;1272;22526;-72
2024/03/08 05:53:31;;;;;;;27.60;17.70;;;;;;;-0.97;93.40;97103.69;109144;1269;22524;-72
2024/03/08 05:56:09;;;;;;;27.30;17.80;;;;;;;-0.96;93.24;97104.81;109068;1256;22625;-72
2024/03/08 05:58:42;;;;;;;26.10;17.40;;;;;;;-0.93;93.59;97102.50;109168;1272;23434;-72
2024/03/08 06:01:15;;;;;;;23.90;16.50;;;;;;;-0.89;93.60;97106.98;109108;1257;23755;-72
2024/03/08 06:03:49;;;;;;;24.10;17.20;;;;;;;-0.87;93.37;97107.64;109120;1272;22547;-72
2024/03/08 06:06:21;;;;;;;26.00;16.90;;;;;;;-0.89;93.48;97103.83;109142;1272;22554;-73
2024/03/08 06:08:53;;;;;;;26.20;18.10;;;;;;;-0.88;93.59;97103.75;109118;1269;25274;-72
2024/03/08 06:11:26;;;;;;;26.80;18.40;;;;;;;-0.86;93.76;97102.40;109063;1256;22560;-72
2024/03/08 06:14:00;;;;;;;26.50;17.20;;;;;;;-0.83;93.57;97106.84;109117;1270;23686;-72
2024/03/08 06:16:36;;;;;;;27.80;19.30;;;;;;;-0.84;93.54;97100.86;109144;1272;22524;-72
2024/03/08 06:19:07;;;;;;;24.60;17.70;;;;;;;-0.85;93.52;97104.92;109063;1272;22976;-72
2024/03/08 06:21:41;;;;;;;26.60;16.50;;;;;;;-0.83;93.39;97101.23;109090;1270;24200;-72
2024/03/08 06:24:12;;;;;;;22.80;16.70;;;;;;;-0.84;93.12;97104.42;109112;1272;24472;-72
2024/03/08 06:26:45;;;;;;;23.20;16.80;;;;;;;-0.81;93.59;97103.60;109083;1271;24198;-73
2024/03/08 06:29:19;;;;;;;25.50;17.70;;;;;;;-0.78;93.45;97105.13;109065;1272;25403;-72
2024/03/08 06:31:50;;;;;;;24.20;16.70;;;;;;;-0.77;93.48;97104.57;109143;1272;22609;-72
2024/03/08 06:34:23;;;;;;;20.10;14.20;;;;;;;-0.74;93.32;97100.89;109119;1272;23853;-72
2024/03/08 06:37:00;;;;;;;22.60;16.20;;;;;;;-0.68;93.51;97099.80;109117;1270;22511;-72
2024/03/08 06:39:32;;;;;;;25.50;17.70;;;;;;;-0.58;93.96;97098.59;109096;1272;24412;-72
2024/03/08 06:42:07;;;;;;;24.00;17.80;;;;;;;-0.51;93.82;97098.02;109067;1272;22510;-72
2024/03/08 06:44:48;;;;;;;26.20;18.20;;;;;;;-0.44;93.90;97100.42;109078;1270;22559;-72
2024/03/08 06:47:20;;;;;;;23.90;16.90;;;;;;;-0.38;93.80;97101.33;109108;1267;22520;-72
2024/03/08 06:49:51;;;;;;;22.80;16.20;;;;;;;-0.29;94.09;97100.20;109223;1272;22531;-73
2024/03/08 06:52:25;;;;;;;25.10;16.30;;;;;;;-0.29;93.43;97100.02;109195;1272;22459;-72
2024/03/08 06:55:01;;;;;;;26.70;18.60;;;;;;;-0.30;93.76;97095.77;109071;1270;22548;-72
2024/03/08 06:57:38;;;;;;;25.30;17.50;;;;;;;-0.29;93.47;97098.78;109036;1270;22567;-73
2024/03/08 07:00:18;;;;;;;24.20;15.80;;;;;;;-0.31;93.36;97096.09;109169;1270;23989;-72
2024/03/08 07:02:49;;;;;;;23.10;15.50;;;;;;;-0.35;93.14;97099.38;109107;1268;22508;-73
2024/03/08 07:05:21;;;;;;;22.70;16.50;;;;;;;-0.32;93.39;97100.54;109117;1270;22516;-72
2024/03/08 07:07:54;;;;;;;25.40;16.60;;;;;;;-0.22;93.84;97099.29;109132;1267;25055;-72
2024/03/08 07:10:26;;;;;;;24.90;17.20;;;;;;;-0.15;93.52;97097.13;109163;1272;24189;-72
2024/03/08 07:12:57;;;;;;;27.20;19.30;;;;;;;-0.14;93.37;97098.55;109125;1270;22511;-74
2024/03/08 07:15:29;;;;;;;22.50;15.80;;;;;;;-0.11;93.51;97099.98;109075;1272;22498;-74
2024/03/08 07:18:03;;;;;;;23.40;15.10;;;;;;;-0.07;93.31;97099.08;109162;1270;23694;-74
2024/03/08 07:20:37;;;;;;;27.00;18.20;;;;;;;-0.09;92.90;97100.42;109188;1253;22620;-73
2024/03/08 07:23:08;;;;;;;27.20;19.10;;;;;;;-0.13;93.18;97101.27;109118;1266;22813;-73
2024/03/08 07:25:42;;;;;;;27.00;18.20;;;;;;;-0.11;93.26;97107.48;109183;1267;22550;-74
2024/03/08 07:28:16;;;;;;;25.10;17.30;;;;;;;-0.06;93.18;97105.36;109090;1269;23360;-73
2024/03/08 07:31:01;;;;;;;24.70;15.90;;;;;;;-0.14;92.69;97103.82;109142;1272;22550;-73
2024/03/08 07:33:35;;;;;;;22.70;16.50;;;;;;;-0.12;93.06;97105.23;107269;1267;2492541;-74
2024/03/08 07:36:09;;;;;;;24.70;18.30;;;;;;;-0.13;92.43;97106.80;109180;1266;24295;-73
2024/03/08 07:38:43;;;;;;;28.00;18.60;;;;;;;-0.18;92.99;97106.27;109107;1267;22511;-73
2024/03/08 07:41:16;;;;;;;24.30;16.50;;;;;;;-0.11;93.15;97102.40;109090;1272;25321;-73
2024/03/08 07:43:48;;;;;;;23.60;14.70;;;;;;;-0.03;93.32;97100.32;109085;1272;22719;-73
2024/03/08 07:46:23;;;;;;;22.90;16.70;;;;;;;0.06;93.09;97105.06;109177;1272;22508;-73
2024/03/08 07:48:56;;;;;;;26.10;17.90;;;;;;;0.12;93.12;97099.91;109158;1267;25232;-73
2024/03/08 07:51:27;;;;;;;26.40;18.70;;;;;;;0.16;93.09;97101.11;109188;1272;22650;-74
2024/03/08 07:54:00;;;;;;;26.10;17.40;;;;;;;0.16;92.60;97098.70;109117;1272;22809;-72
2024/03/08 07:56:33;;;;;;;22.80;15.30;;;;;;;0.16;92.52;97100.46;109104;1251;25973;-72
2024/03/08 07:59:08;;;;;;;24.10;14.80;;;;;;;0.21;92.82;97099.58;109076;1270;22842;-72
2024/03/08 08:01:39;;;;;;;22.40;15.40;;;;;;;0.30;93.18;97096.08;109194;1265;22519;-72
2024/03/08 08:04:12;;;;;;;24.20;18.00;;;;;;;0.31;92.61;97098.02;109148;1267;22565;-72
2024/03/08 08:06:43;;;;;;;25.20;17.70;;;;;;;0.31;92.80;97098.05;109118;1272;22508;-72
2024/03/08 08:09:28;;;;;;;25.20;17.80;;;;;;;0.35;92.41;97091.23;109120;1272;23734;-72
2024/03/08 08:12:01;;;;;;;24.10;16.30;;;;;;;0.36;92.80;97093.30;109103;1266;25278;-72
2024/03/08 08:14:37;;;;;;;23.30;16.80;;;;;;;0.25;92.10;97097.64;109171;1257;22480;-73
2024/03/08 08:17:12;;;;;;;27.20;19.40;;;;;;;0.09;91.99;97096.59;109179;1272;22520;-72
2024/03/08 08:19:45;;;;;;;26.50;18.40;;;;;;;0.02;91.76;97095.88;109176;1272;22533;-72
2024/03/08 08:22:21;;;;;;;23.00;16.70;;;;;;;0.02;92.14;97100.98;109184;1267;23937;-72
2024/03/08 08:24:54;;;;;;;23.80;16.40;;;;;;;0.07;92.07;97096.77;109251;1266;23579;-73
2024/03/08 08:27:26;;;;;;;23.50;16.00;;;;;;;-0.02;91.64;97096.35;109176;1272;24167;-72
2024/03/08 08:30:07;;;;;;;26.30;17.00;;;;;;;-0.04;91.88;97094.61;109144;1267;23808;-72
2024/03/08 08:32:42;;;;;;;21.10;15.10;;;;;;;-0.00;91.75;97098.23;109113;1267;22518;-72
2024/03/08 08:35:19;;;;;;;26.50;17.70;;;;;;;0.04;92.10;97097.88;109092;1266;22695;-73
2024/03/08 08:37:53;;;;;;;25.90;17.70;;;;;;;0.04;91.88;97095.20;109149;1267;22510;-73
2024/03/08 08:40:26;;;;;;;27.20;18.60;;;;;;;0.11;91.89;97092.78;109186;1269;22560;-73
2024/03/08 08:42:57;;;;;;;25.50;17.60;;;;;;;0.05;91.54;97091.42;109220;1267;22547;-73
2024/03/08 08:45:28;;;;;;;21.90;15.20;;;;;;;0.17;92.04;97091.98;109202;1272;24359;-73
2024/03/08 08:48:00;;;;;;;25.10;16.70;;;;;;;0.32;92.35;97087.02;109220;1272;22532;-73
2024/03/08 08:50:34;;;;;;;26.30;18.10;;;;;;;0.39;92.10;97086.52;109138;1267;22517;-73
2024/03/08 08:53:10;;;;;;;27.30;19.50;;;;;;;0.42;91.84;97086.41;109139;1272;22511;-73
2024/03/08 08:55:42;;;;;;;24.30;16.60;;;;;;;0.50;92.05;97088.80;109168;1272;22511;-73
2024/03/08 08:58:15;;;;;;;24.20;17.60;;;;;;;0.56;92.23;97092.02;109169;1272;22512;-74
2024/03/08 09:00:46;;;;;;;26.70;20.30;;;;;;;0.54;91.75;97090.44;109196;1269;22907;-73
2024/03/08 09:03:17;;;;;;;30.50;20.60;;;;;;;0.58;91.87;97088.60;109115;1267;22525;-73
2024/03/08 09:05:48;;;;;;;27.90;19.00;;;;;;;0.64;91.98;97091.64;109202;1267;24244;-73
2024/03/08 09:08:19;;;;;;;27.40;18.10;;;;;;;0.58;91.42;97088.91;109146;1251;22983;-73
2024/03/08 09:10:51;;;;;;;24.50;17.20;;;;;;;0.53;91.29;97088.20;109224;1272;25397;-73
2024/03/08 09:13:27;;;;;;;27.50;19.60;;;;;;;0.36;90.64;97090.15;109043;1272;70043;-74
2024/03/08 09:15:59;;;;;;;26.00;18.20;;;;;;;0.31;91.08;97088.70;109165;1266;22504;-73
2024/03/08 09:18:33;;;;;;;27.00;18.10;;;;;;;0.38;91.42;97089.21;109178;1267;22640;-73
2024/03/08 09:21:05;;;;;;;24.60;18.10;;;;;;;0.41;91.00;97088.41;109137;1266;22525;-73
2024/03/08 09:23:41;;;;;;;29.30;19.30;;;;;;;0.38;90.85;97084.76;109192;1266;34910;-73
2024/03/08 09:26:15;;;;;;;27.70;19.10;;;;;;;0.35;90.93;97085.45;109145;1269;22547;-73
2024/03/08 09:28:48;;;;;;;26.80;18.10;;;;;;;0.29;90.60;97087.54;109194;1267;22519;-73
2024/03/08 09:31:23;;;;;;;29.40;18.50;;;;;;;0.30;90.70;97083.45;109166;1272;22599;-73
2024/03/08 09:33:57;;;;;;;27.40;19.60;;;;;;;0.39;91.44;97078.46;109148;1267;22785;-73
2024/03/08 09:36:33;;;;;;;24.50;17.70;;;;;;;0.50;91.07;97082.39;109147;1270;23808;-73
2024/03/08 09:39:07;;;;;;;26.40;18.80;;;;;;;0.40;90.43;97080.95;109174;1272;22519;-73
2024/03/08 09:41:39;;;;;;;26.90;17.60;;;;;;;0.38;90.54;97079.50;109143;1267;22493;-74
2024/03/08 09:44:13;;;;;;;26.10;17.80;;;;;;;0.41;90.52;97077.53;109178;1266;55916;-73
2024/03/08 09:46:47;;;;;;;29.50;17.60;;;;;;;0.30;89.95;97078.27;109244;1270;22612;-72
2024/03/08 09:49:20;;;;;;;25.50;17.90;;;;;;;0.25;90.09;97076.82;109193;1272;22553;-73
2024/03/08 09:51:53;;;;;;;25.60;19.00;;;;;;;0.33;90.35;97077.75;109178;1272;22569;-72
2024/03/08 09:54:24;;;;;;;26.30;18.70;;;;;;;0.32;90.13;97079.24;109286;1260;22591;-72
2024/03/08 09:57:04;;;;;;;28.10;19.00;;;;;;;0.28;90.07;97075.17;109174;1272;22564;-72
2024/03/08 09:59:48;;;;;;;24.90;16.60;;;;;;;0.41;90.88;97078.74;109147;1267;25242;-72
2024/03/08 10:02:20;;;;;;;22.10;15.80;;;;;;;0.55;90.57;97078.97;109198;1272;22521;-72
2024/03/08 10:04:53;;;;;;;30.10;23.40;;;;;;;0.66;90.79;97079.02;109239;1269;24186;-72
2024/03/08 10:07:32;;;;;;;42.20;30.20;;;;;;;0.59;89.94;97076.79;109184;1265;22518;-72
2024/03/08 10:10:18;;;;;;;85.20;42.40;;;;;;;0.55;90.24;97078.03;109170;1272;25248;-73
2024/03/08 10:12:55;;;;;;;30.70;21.50;;;;;;;0.67;90.29;97081.35;109139;1269;23993;-73
2024/03/08 10:15:28;;;;;;;27.90;20.90;;;;;;;0.65;89.99;97078.42;109156;1272;22527;-72
2024/03/08 10:18:03;;;;;;;26.80;18.00;;;;;;;0.67;89.95;97079.78;109205;1267;22622;-73
2024/03/08 10:20:39;;;;;;;41.00;34.70;;;;;;;0.75;90.47;97076.49;109188;1272;22581;-72
2024/03/08 10:23:10;;;;;;;29.00;22.10;;;;;;;0.78;90.08;97076.52;109272;1272;22543;-72
2024/03/08 10:25:44;;;;;;;71.50;63.90;;;;;;;0.82;89.99;97077.79;109179;1266;22789;-72
2024/03/08 10:28:19;;;;;;;39.90;33.90;;;;;;;0.82;90.07;97078.14;109156;1266;22448;-73
2024/03/08 10:30:56;;;;;;;28.90;22.40;;;;;;;0.88;90.40;97075.70;109170;1272;22474;-71
2024/03/08 10:33:28;;;;;;;74.70;67.00;;;;;;;1.02;90.60;97078.58;109165;1272;22556;-72
2024/03/08 10:36:04;;;;;;;45.20;39.50;;;;;;;1.00;89.95;97077.06;109192;1272;25250;-72
2024/03/08 10:38:40;;;;;;;51.10;45.60;;;;;;;0.94;89.81;97069.61;109261;1265;22535;-73
2024/03/08 10:41:12;;;;;;;31.10;22.70;;;;;;;0.87;89.70;97069.11;109311;1249;22514;-73
2024/03/08 10:43:55;;;;;;;30.40;22.60;;;;;;;0.83;89.71;97066.46;109110;1266;78201;-72
2024/03/08 10:46:47;;;;;;;36.20;27.70;;;;;;;0.88;90.00;97068.63;109178;1249;22591;-72
2024/03/08 10:49:28;;;;;;;27.20;19.70;;;;;;;0.88;89.90;97066.70;109318;1267;22923;-72
2024/03/08 10:52:05;;;;;;;23.40;17.20;;;;;;;1.01;90.44;97068.90;109121;1269;24190;-72
2024/03/08 10:54:39;;;;;;;29.10;19.90;;;;;;;1.21;90.77;97067.91;109273;1266;23502;-72
2024/03/08 10:57:16;;;;;;;29.10;21.50;;;;;;;1.19;89.99;97066.02;109277;1271;22518;-73
2024/03/08 10:59:49;;;;;;;28.60;20.10;;;;;;;1.23;90.24;97065.08;109344;1269;22602;-72
2024/03/08 11:02:20;;;;;;;30.30;21.60;;;;;;;1.32;90.44;97064.37;109295;1270;22526;-72
2024/03/08 11:04:56;;;;;;;23.10;16.50;;;;;;;1.43;90.37;97062.82;109185;1266;25314;-72
2024/03/08 11:07:29;;;;;;;29.20;20.20;;;;;;;1.41;89.80;97065.73;109153;1266;22535;-72
2024/03/08 11:10:00;;;;;;;29.80;19.40;;;;;;;1.43;90.06;97060.41;109164;1272;22528;-72
2024/03/08 11:12:39;;;;;;;24.10;17.00;;;;;;;1.58;90.40;97056.88;109209;1266;22515;-72
2024/03/08 11:15:14;;;;;;;26.30;19.30;;;;;;;1.60;89.91;97057.02;109153;1272;23187;-72
2024/03/08 11:18:02;;;;;;;29.30;21.00;;;;;;;1.57;89.79;97056.04;109138;1270;22557;-72
2024/03/08 11:20:35;;;;;;;29.90;21.50;;;;;;;1.58;89.76;97050.09;109243;1272;22619;-72
2024/03/08 11:23:10;;;;;;;30.60;21.20;;;;;;;1.68;90.24;97045.73;109184;1270;22565;-72
2024/03/08 11:25:45;;;;;;;27.90;20.10;;;;;;;1.76;90.03;97041.29;109490;1272;23980;-72
2024/03/08 11:28:19;;;;;;;25.70;18.60;;;;;;;1.69;89.56;97044.02;109126;1266;22576;-73
2024/03/08 11:31:28;;;;;;;27.50;19.40;;;;;;;1.62;89.19;97044.98;109251;1269;23829;-72
2024/03/08 11:34:07;;;;;;;35.10;23.60;;;;;;;1.46;88.88;97038.73;110010;1272;22738;-72
2024/03/08 11:36:48;;;;;;;32.50;19.40;;;;;;;1.37;88.99;97042.63;109116;1272;23299;-72
2024/03/08 11:39:21;;;;;;;29.00;20.10;;;;;;;1.33;89.13;97040.45;109145;1269;22514;-72
2024/03/08 11:42:04;;;;;;;29.50;20.90;;;;;;;1.42;89.39;97038.43;109176;1266;25284;-73
2024/03/08 11:44:38;;;;;;;30.00;21.60;;;;;;;1.51;89.52;97036.96;109177;1266;22634;-75